createdAt,value
2022-12-19T00:01:19.242Z,19.75
2022-12-19T00:03:47.552Z,20.88
2022-12-19T00:06:15.230Z,21.25
2022-12-19T00:08:43.272Z,20.33
2022-12-19T00:11:11.307Z,21.73
2022-12-19T00:13:41.068Z,21.88
2022-12-19T00:16:12.101Z,20.45
2022-12-19T00:18:43.828Z,21.05
2022-12-19T00:21:12.221Z,22.83
2022-12-19T00:23:38.772Z,21.00
2022-12-19T00:26:13.745Z,19.77
2022-12-19T00:28:45.072Z,20.17
2022-12-19T00:31:11.627Z,19.98
2022-12-19T00:33:42.578Z,18.83
2022-12-19T00:36:22.423Z,19.90
2022-12-19T00:38:51.275Z,20.15
2022-12-19T00:41:22.499Z,20.63
2022-12-19T00:43:57.280Z,21.10
2022-12-19T00:46:24.676Z,20.48
2022-12-19T00:48:51.458Z,20.85
2022-12-19T00:51:20.120Z,20.20
2022-12-19T00:53:48.432Z,20.52
2022-12-19T00:56:18.254Z,20.58
2022-12-19T00:58:47.148Z,19.35
2022-12-19T01:01:20.928Z,18.98
2022-12-19T01:04:11.290Z,19.80
2022-12-19T01:06:34.723Z,19.15
2022-12-19T01:09:01.390Z,19.02
2022-12-19T01:11:46.319Z,18.83
2022-12-19T01:14:20.724Z,19.13
2022-12-19T01:16:49.630Z,20.45
2022-12-19T01:19:16.108Z,19.17
2022-12-19T01:21:42.626Z,19.33
2022-12-19T01:24:09.658Z,18.08
2022-12-19T01:26:36.106Z,18.00
2022-12-19T01:29:02.536Z,19.65
2022-12-19T01:31:29.054Z,19.63
2022-12-19T01:33:55.585Z,19.88
2022-12-19T01:36:22.858Z,19.08
2022-12-19T01:38:49.310Z,19.35
2022-12-19T01:41:15.903Z,18.88
2022-12-19T01:44:07.063Z,18.48
2022-12-19T01:46:37.309Z,19.92
2022-12-19T01:49:06.245Z,18.15
2022-12-19T01:51:39.673Z,19.27
2022-12-19T01:54:09.925Z,19.92
2022-12-19T01:56:40.379Z,19.13
2022-12-19T01:59:13.264Z,18.10
2022-12-19T02:01:51.770Z,18.33
2022-12-19T02:04:23.474Z,19.60
2022-12-19T02:06:51.787Z,19.23
2022-12-19T02:09:18.935Z,20.30
2022-12-19T02:11:46.024Z,18.20
2022-12-19T02:14:12.863Z,19.88
2022-12-19T02:16:47.945Z,18.58
2022-12-19T02:19:52.618Z,18.58
2022-12-19T02:22:33.355Z,19.35
2022-12-19T02:25:18.043Z,18.90
2022-12-19T02:28:30.315Z,20.23
2022-12-19T02:30:57.883Z,19.38
2022-12-19T02:33:38.372Z,18.00
2022-12-19T02:36:15.202Z,19.42
2022-12-19T02:38:57.336Z,18.33
2022-12-19T02:41:43.059Z,18.75
2022-12-19T02:44:35.711Z,17.60
2022-12-19T02:47:05.411Z,19.60
2022-12-19T02:49:36.142Z,18.92
2022-12-19T02:52:18.743Z,18.58
2022-12-19T02:54:52.000Z,17.60
2022-12-19T03:00:03.953Z,17.33
2022-12-19T03:03:06.585Z,17.67
2022-12-19T03:05:42.280Z,19.25
2022-12-19T03:08:08.704Z,17.92
2022-12-19T03:10:44.252Z,18.85
2022-12-19T03:13:29.477Z,18.38
2022-12-19T03:15:57.975Z,17.48
2022-12-19T03:18:24.884Z,18.30
2022-12-19T03:21:17.572Z,19.60
2022-12-19T03:23:45.917Z,17.75
2022-12-19T03:26:17.793Z,18.30
2022-12-19T03:28:51.562Z,17.98
2022-12-19T03:33:48.110Z,18.58
2022-12-19T03:36:21.112Z,19.30
2022-12-19T03:38:48.894Z,18.58
2022-12-19T03:41:38.786Z,18.70
2022-12-19T03:44:08.575Z,16.80
2022-12-19T03:46:40.794Z,16.67
2022-12-19T03:49:07.344Z,19.50
2022-12-19T03:51:46.089Z,17.92
2022-12-19T03:54:39.054Z,16.73
2022-12-19T03:57:23.716Z,18.13
2022-12-19T04:00:17.512Z,17.90
2022-12-19T04:02:48.094Z,17.98
2022-12-19T04:05:26.131Z,17.70
2022-12-19T04:07:57.696Z,17.15
2022-12-19T04:10:26.798Z,18.00
2022-12-19T04:13:16.352Z,17.48
2022-12-19T04:16:10.671Z,17.02
2022-12-19T04:21:30.373Z,15.80
2022-12-19T04:24:09.980Z,17.77
2022-12-19T04:26:39.102Z,15.57
2022-12-19T04:29:07.839Z,15.68
2022-12-19T04:31:35.983Z,16.08
2022-12-19T04:34:02.436Z,16.65
2022-12-19T04:36:29.400Z,16.70
2022-12-19T04:38:56.086Z,17.00
2022-12-19T04:41:22.535Z,15.93
2022-12-19T04:43:48.994Z,16.55
2022-12-19T04:46:15.465Z,15.85
2022-12-19T04:48:41.995Z,15.20
2022-12-19T04:51:08.684Z,15.77
2022-12-19T04:53:35.613Z,15.75
2022-12-19T04:56:06.808Z,16.50
2022-12-19T04:58:33.758Z,16.83
2022-12-19T05:01:08.341Z,15.63
2022-12-19T05:03:36.058Z,15.35
2022-12-19T05:06:04.515Z,15.05
2022-12-19T05:08:31.001Z,16.08
2022-12-19T05:11:02.115Z,15.38
2022-12-19T05:13:30.177Z,16.42
2022-12-19T05:16:05.973Z,16.25
2022-12-19T05:18:32.657Z,16.15
2022-12-19T05:20:59.551Z,14.90
2022-12-19T05:23:26.063Z,15.10
2022-12-19T05:25:52.822Z,15.57
2022-12-19T05:28:19.649Z,15.38
2022-12-19T05:30:51.951Z,16.48
2022-12-19T05:33:18.900Z,15.02
2022-12-19T05:35:45.581Z,15.13
2022-12-19T05:38:12.003Z,15.02
2022-12-19T05:40:38.465Z,15.18
2022-12-19T05:43:04.908Z,15.45
2022-12-19T05:45:31.310Z,18.08
2022-12-19T05:48:01.294Z,16.35
2022-12-19T05:50:28.160Z,18.70
2022-12-19T05:52:54.619Z,17.33
2022-12-19T05:55:21.028Z,16.60
2022-12-19T05:57:47.447Z,17.35
2022-12-19T06:00:14.465Z,15.63
2022-12-19T06:02:41.000Z,16.30
2022-12-19T06:05:08.109Z,15.38
2022-12-19T06:07:35.026Z,16.02
2022-12-19T06:10:01.620Z,15.00
2022-12-19T06:12:28.128Z,16.67
2022-12-19T06:14:54.762Z,15.65
2022-12-19T06:17:21.731Z,15.10
2022-12-19T06:19:48.303Z,15.18
2022-12-19T06:22:14.770Z,15.13
2022-12-19T06:24:41.413Z,14.18
2022-12-19T06:27:07.919Z,15.15
2022-12-19T06:29:34.372Z,15.32
2022-12-19T06:32:00.827Z,15.13
2022-12-19T06:35:02.336Z,15.77
2022-12-19T06:37:13.712Z,14.98
2022-12-19T06:39:40.151Z,13.93
2022-12-19T06:42:24.502Z,15.50
2022-12-19T06:44:53.604Z,14.57
2022-12-19T06:47:22.101Z,14.73
2022-12-19T06:49:48.966Z,14.35
2022-12-19T06:52:17.117Z,14.95
2022-12-19T06:54:43.601Z,15.27
2022-12-19T06:57:09.995Z,15.27
2022-12-19T06:59:36.425Z,15.00
2022-12-19T07:02:27.251Z,14.30
2022-12-19T07:05:02.565Z,14.05
2022-12-19T07:07:29.106Z,14.70
2022-12-19T07:09:55.551Z,15.45
2022-12-19T07:12:21.959Z,15.45
2022-12-19T07:14:53.165Z,15.32
2022-12-19T07:17:21.617Z,14.88
2022-12-19T07:19:51.029Z,15.48
2022-12-19T07:22:17.613Z,14.38
2022-12-19T07:24:44.148Z,14.77
2022-12-19T07:27:11.083Z,15.57
2022-12-19T07:29:37.553Z,16.23
2022-12-19T07:32:04.442Z,14.85
2022-12-19T07:34:30.909Z,14.63
2022-12-19T07:36:57.527Z,14.07
2022-12-19T07:39:24.168Z,14.52
2022-12-19T07:41:50.597Z,14.07
2022-12-19T07:44:29.255Z,14.02
2022-12-19T07:46:55.782Z,15.00
2022-12-19T07:49:22.901Z,13.82
2022-12-19T07:51:50.480Z,15.27
2022-12-19T07:54:16.906Z,15.40
2022-12-19T07:56:43.377Z,14.50
2022-12-19T07:59:09.942Z,13.93
2022-12-19T08:01:36.400Z,13.85
2022-12-19T08:04:03.322Z,14.60
2022-12-19T08:06:29.798Z,13.48
2022-12-19T08:08:57.070Z,14.60
2022-12-19T08:11:27.372Z,14.80
2022-12-19T08:13:54.553Z,14.27
2022-12-19T08:16:21.590Z,14.45
2022-12-19T08:18:48.103Z,14.73
2022-12-19T08:21:14.615Z,13.70
2022-12-19T08:23:41.132Z,15.20
2022-12-19T08:26:11.592Z,14.55
2022-12-19T08:28:38.362Z,15.55
2022-12-19T08:31:10.999Z,15.55
2022-12-19T08:33:38.079Z,14.55
2022-12-19T08:36:09.892Z,15.18
2022-12-19T08:38:37.107Z,14.77
2022-12-19T08:41:04.005Z,14.13
2022-12-19T08:43:30.650Z,14.15
2022-12-19T08:45:57.854Z,15.25
2022-12-19T08:48:24.928Z,15.23
2022-12-19T08:50:57.372Z,13.85
2022-12-19T08:53:26.561Z,14.10
2022-12-19T08:55:58.288Z,14.48
2022-12-19T08:58:26.626Z,15.77
2022-12-19T09:00:57.621Z,14.98
2022-12-19T09:03:29.494Z,14.30
2022-12-19T09:06:12.023Z,14.90
2022-12-19T09:08:45.043Z,14.80
2022-12-19T09:11:14.899Z,15.40
2022-12-19T09:13:42.179Z,14.73
2022-12-19T09:16:12.958Z,15.00
2022-12-19T09:18:45.140Z,14.32
2022-12-19T09:21:15.632Z,14.57
2022-12-19T09:23:42.393Z,14.60
2022-12-19T09:26:12.074Z,15.65
2022-12-19T09:28:39.863Z,13.73
2022-12-19T09:31:08.550Z,14.02
2022-12-19T09:33:41.358Z,14.50
2022-12-19T09:36:15.478Z,14.80
2022-12-19T09:38:42.507Z,14.80
2022-12-19T09:41:34.849Z,16.02
2022-12-19T09:44:31.704Z,14.60
2022-12-19T09:47:04.231Z,14.38
2022-12-19T09:49:41.663Z,15.65
2022-12-19T09:52:19.010Z,15.63
2022-12-19T09:54:57.802Z,14.98
2022-12-19T09:57:37.192Z,15.32
2022-12-19T10:00:10.955Z,15.13
2022-12-19T10:02:46.472Z,15.48
2022-12-19T10:05:55.230Z,14.88
2022-12-19T10:08:27.773Z,14.30
2022-12-19T10:12:37.496Z,16.25
2022-12-19T10:14:22.490Z,14.82
2022-12-19T10:17:24.817Z,14.55
2022-12-19T10:20:19.319Z,16.10
2022-12-19T10:22:56.286Z,15.85
2022-12-19T10:25:28.833Z,14.30
2022-12-19T10:28:35.565Z,15.68
2022-12-19T10:31:20.645Z,15.27
2022-12-19T10:34:00.345Z,14.18
2022-12-19T10:36:56.004Z,15.40
2022-12-19T10:39:24.009Z,15.63
2022-12-19T10:41:56.296Z,15.60
2022-12-19T10:44:27.042Z,15.57
2022-12-19T10:46:53.639Z,15.57
2022-12-19T10:49:22.567Z,16.17
2022-12-19T10:51:56.126Z,16.15
2022-12-19T10:54:27.573Z,15.80
2022-12-19T10:57:27.550Z,16.10
2022-12-19T10:59:54.005Z,15.67
2022-12-19T11:02:39.570Z,14.88
2022-12-19T11:05:45.694Z,15.20
2022-12-19T11:08:16.244Z,16.25
2022-12-19T11:12:25.337Z,17.20
2022-12-19T11:19:14.015Z,16.67
2022-12-19T11:21:55.530Z,16.15
2022-12-19T11:29:33.481Z,15.02
2022-12-19T11:29:39.121Z,16.77
2022-12-19T11:29:40.576Z,15.20
2022-12-19T11:30:25.643Z,15.10
2022-12-19T11:34:21.319Z,15.85
2022-12-19T11:37:09.642Z,15.50
2022-12-19T11:39:47.065Z,14.70
2022-12-19T11:42:16.356Z,15.80
2022-12-19T11:44:58.110Z,15.27
2022-12-19T11:47:39.608Z,15.25
2022-12-19T11:50:24.791Z,13.85
2022-12-19T11:53:19.222Z,14.13
2022-12-19T11:56:16.604Z,14.35
2022-12-19T11:58:49.045Z,14.63
2022-12-19T12:02:02.219Z,14.68
2022-12-19T12:04:54.894Z,15.27
2022-12-19T12:08:30.086Z,14.07
2022-12-19T12:14:52.178Z,13.63
2022-12-19T12:22:42.147Z,13.88
2022-12-19T12:27:42.464Z,13.02
2022-12-19T12:31:26.567Z,13.30
2022-12-19T12:31:57.584Z,13.52
2022-12-19T12:32:02.058Z,13.10
2022-12-19T12:32:04.342Z,12.90
2022-12-19T12:35:46.567Z,13.82
2022-12-19T12:38:35.893Z,12.65
2022-12-19T12:41:47.863Z,13.85
2022-12-19T12:44:15.293Z,13.02
2022-12-19T12:46:52.023Z,12.48
2022-12-19T12:49:48.205Z,12.43
2022-12-19T12:52:20.011Z,12.32
2022-12-19T12:54:49.369Z,12.10
2022-12-19T12:57:18.812Z,11.50
2022-12-19T12:59:47.552Z,12.25
2022-12-19T13:02:22.602Z,11.18
2022-12-19T13:05:01.175Z,12.10
2022-12-19T13:07:42.765Z,11.77
2022-12-19T13:10:20.840Z,11.07
2022-12-19T13:12:59.908Z,11.40
2022-12-19T13:15:36.700Z,11.98
2022-12-19T13:18:14.515Z,11.10
2022-12-19T13:20:47.341Z,10.90
2022-12-19T13:23:24.503Z,11.40
2022-12-19T13:25:53.901Z,11.00
2022-12-19T13:28:20.265Z,9.95
2022-12-19T13:31:20.713Z,10.48
2022-12-19T13:33:56.210Z,11.20
2022-12-19T13:39:50.171Z,10.90
2022-12-19T13:39:57.475Z,10.60
2022-12-19T13:42:46.325Z,11.25
2022-12-19T13:45:21.887Z,10.88
2022-12-19T13:47:50.712Z,10.93
2022-12-19T13:50:37.465Z,10.80
2022-12-19T13:53:14.219Z,11.25
2022-12-19T13:55:41.959Z,11.35
2022-12-19T13:58:21.858Z,12.25
2022-12-19T14:01:01.196Z,11.77
2022-12-19T14:03:38.919Z,11.80
2022-12-19T14:06:20.569Z,12.15
2022-12-19T14:08:59.269Z,12.05
2022-12-19T14:12:11.841Z,12.10
2022-12-19T14:14:46.767Z,12.65
2022-12-19T14:17:20.141Z,12.77
2022-12-19T14:19:52.183Z,12.82
2022-12-19T14:22:25.531Z,13.15
2022-12-19T14:25:33.137Z,12.93
2022-12-19T14:28:21.571Z,13.65
2022-12-19T14:30:47.867Z,12.30
2022-12-19T14:33:47.019Z,13.50
2022-12-19T14:36:15.199Z,13.82
2022-12-19T14:39:23.113Z,13.88
2022-12-19T14:42:01.926Z,13.15
2022-12-19T14:54:02.257Z,13.98
2022-12-19T14:54:23.812Z,14.85
2022-12-19T14:54:24.920Z,14.02
2022-12-19T14:54:50.326Z,14.27
2022-12-19T14:59:01.572Z,14.98
2022-12-19T15:01:32.270Z,16.02
2022-12-19T15:04:51.503Z,16.30
2022-12-19T15:07:12.283Z,16.30
2022-12-19T15:11:08.478Z,15.65
2022-12-19T15:14:48.857Z,15.80
2022-12-19T15:16:05.236Z,16.20
2022-12-19T15:18:40.029Z,19.63
2022-12-19T15:21:12.523Z,19.30
2022-12-19T15:23:39.046Z,17.85
2022-12-19T15:26:13.045Z,19.50
2022-12-19T15:28:58.535Z,18.00
2022-12-19T15:31:34.863Z,17.40
2022-12-19T15:34:36.730Z,18.10
2022-12-19T15:37:04.767Z,19.42
2022-12-19T15:39:31.278Z,18.65
2022-12-19T15:41:59.715Z,18.33
2022-12-19T15:44:36.584Z,18.35
2022-12-19T15:47:06.387Z,18.98
2022-12-19T15:49:34.972Z,18.17
2022-12-19T15:52:02.260Z,18.13
2022-12-19T15:57:36.701Z,17.75
2022-12-19T16:00:08.583Z,17.10
2022-12-19T16:05:25.497Z,18.33
2022-12-19T16:07:52.513Z,18.35
2022-12-19T16:10:18.929Z,17.88
2022-12-19T16:12:51.068Z,18.42
2022-12-19T16:15:23.452Z,18.08
2022-12-19T16:17:49.884Z,19.30
2022-12-19T16:20:28.210Z,18.23
2022-12-19T16:22:55.318Z,19.10
2022-12-19T16:25:24.957Z,17.77
2022-12-19T16:27:57.033Z,18.15
2022-12-19T16:30:29.062Z,18.60
2022-12-19T16:32:55.560Z,17.80
2022-12-19T16:35:47.262Z,18.60
2022-12-19T16:38:10.711Z,19.05
2022-12-19T16:40:37.347Z,19.27
2022-12-19T16:43:12.765Z,19.92
2022-12-19T16:45:39.453Z,19.33
2022-12-19T16:48:19.064Z,18.42
2022-12-19T16:50:46.141Z,19.48
2022-12-19T16:53:12.574Z,17.90
2022-12-19T16:55:39.443Z,18.10
2022-12-19T16:58:06.128Z,18.75
2022-12-19T17:00:37.486Z,18.92
2022-12-19T17:03:18.643Z,18.92
2022-12-19T17:05:45.238Z,17.85
2022-12-19T17:08:12.753Z,19.50
2022-12-19T17:10:40.874Z,19.10
2022-12-19T17:13:07.313Z,18.88
2022-12-19T17:15:36.939Z,18.65
2022-12-19T17:18:15.924Z,18.70
2022-12-19T17:20:44.382Z,19.35
2022-12-19T17:23:13.213Z,19.63
2022-12-19T17:25:39.723Z,20.42
2022-12-19T17:28:06.169Z,20.20
2022-12-19T17:30:33.925Z,19.05
2022-12-19T17:33:00.482Z,18.52
2022-12-19T17:35:30.468Z,19.77
2022-12-19T17:37:58.256Z,19.58
2022-12-19T17:40:31.838Z,18.58
2022-12-19T17:42:59.469Z,19.45
2022-12-19T17:45:29.252Z,19.73
2022-12-19T17:48:02.891Z,19.77
2022-12-19T17:52:58.808Z,18.75
2022-12-19T17:55:30.041Z,19.60
2022-12-19T17:57:57.090Z,17.98
2022-12-19T18:00:30.426Z,20.00
2022-12-19T18:03:01.317Z,19.25
2022-12-19T18:05:31.928Z,18.90
2022-12-19T18:07:58.401Z,19.48
2022-12-19T18:10:28.037Z,19.80
2022-12-19T18:12:55.167Z,18.73
2022-12-19T18:15:22.754Z,19.05
2022-12-19T18:17:51.232Z,17.80
2022-12-19T18:20:31.848Z,18.67
2022-12-19T18:23:00.704Z,18.65
2022-12-19T18:25:30.939Z,19.65
2022-12-19T18:27:58.498Z,18.27
2022-12-19T18:30:25.734Z,18.85
2022-12-19T18:33:00.396Z,17.75
2022-12-19T18:35:36.408Z,17.90
2022-12-19T18:38:15.382Z,17.95
2022-12-19T18:40:42.613Z,18.30
2022-12-19T18:43:12.959Z,18.45
2022-12-19T18:45:47.245Z,18.75
2022-12-19T18:48:25.712Z,18.98
2022-12-19T18:50:59.316Z,18.15
2022-12-19T18:53:35.269Z,18.88
2022-12-19T18:56:03.999Z,17.98
2022-12-19T18:58:30.451Z,18.00
2022-12-19T19:00:59.713Z,18.92
2022-12-19T19:03:31.190Z,17.83
2022-12-19T19:05:58.227Z,18.70
2022-12-19T19:08:27.589Z,18.23
2022-12-19T19:11:23.391Z,18.05
2022-12-19T19:13:50.739Z,18.20
2022-12-19T19:16:20.907Z,19.05
2022-12-19T19:18:51.999Z,19.48
2022-12-19T19:21:20.424Z,20.30
2022-12-19T19:23:52.309Z,19.58
2022-12-19T19:26:18.755Z,19.23
2022-12-19T19:28:51.772Z,19.45
2022-12-19T19:31:21.287Z,19.73
2022-12-19T19:33:52.059Z,18.10
2022-12-19T19:36:23.019Z,17.35
2022-12-19T19:38:52.972Z,18.23
2022-12-19T19:41:21.133Z,17.63
2022-12-19T19:43:47.541Z,18.77
2022-12-19T19:46:14.074Z,16.60
2022-12-19T19:48:42.449Z,17.20
2022-12-19T19:51:09.542Z,17.92
2022-12-19T19:53:36.460Z,16.55
2022-12-19T19:56:03.915Z,16.88
2022-12-19T19:58:31.099Z,18.27
2022-12-19T20:00:58.068Z,16.27
2022-12-19T20:03:25.147Z,16.35
2022-12-19T20:06:01.770Z,16.60
2022-12-19T20:08:33.637Z,16.55
2022-12-19T20:11:05.334Z,16.83
2022-12-19T20:13:32.285Z,17.67
2022-12-19T20:16:15.934Z,17.33
2022-12-19T20:18:48.531Z,17.42
2022-12-19T20:21:15.356Z,17.63
2022-12-19T20:23:43.219Z,17.80
2022-12-19T20:26:11.308Z,18.30
2022-12-19T20:28:43.713Z,17.60
2022-12-19T20:31:14.403Z,16.75
2022-12-19T20:33:41.038Z,17.60
2022-12-19T20:36:10.091Z,17.10
2022-12-19T20:38:37.280Z,18.30
2022-12-19T20:41:03.873Z,17.88
2022-12-19T20:43:30.464Z,17.13
2022-12-19T20:46:11.760Z,17.38
2022-12-19T20:48:38.810Z,16.45
2022-12-19T20:51:06.088Z,17.00
2022-12-19T20:53:34.687Z,17.50
2022-12-19T20:56:03.321Z,16.55
2022-12-19T20:58:31.600Z,16.02
2022-12-19T21:01:06.195Z,16.70
2022-12-19T21:03:33.097Z,17.77
2022-12-19T21:05:59.948Z,17.02
2022-12-19T21:08:27.571Z,17.27
2022-12-19T21:10:54.264Z,17.65
2022-12-19T21:13:23.935Z,16.38
2022-12-19T21:15:55.206Z,16.67
2022-12-19T21:18:21.934Z,17.33
2022-12-19T21:20:49.984Z,17.98
2022-12-19T21:23:16.425Z,17.23
2022-12-19T21:25:42.905Z,16.77
2022-12-19T21:28:09.462Z,16.33
2022-12-19T21:30:35.967Z,17.77
2022-12-19T21:33:02.925Z,16.52
2022-12-19T21:35:30.205Z,17.75
2022-12-19T21:37:56.609Z,16.83
2022-12-19T21:40:23.045Z,17.40
2022-12-19T21:42:49.487Z,17.17
2022-12-19T21:45:16.135Z,17.10
2022-12-19T21:47:43.025Z,17.77
2022-12-19T21:50:11.308Z,16.52
2022-12-19T21:52:38.535Z,17.85
2022-12-19T21:55:07.671Z,17.02
2022-12-19T21:57:41.291Z,16.85
2022-12-19T22:00:10.507Z,17.17
2022-12-19T22:02:37.801Z,18.05
2022-12-19T22:05:05.421Z,18.00
2022-12-19T22:07:31.926Z,16.40
2022-12-19T22:09:58.614Z,17.08
2022-12-19T22:12:25.770Z,16.13
2022-12-19T22:14:52.358Z,16.52
2022-12-19T22:17:18.775Z,17.38
2022-12-19T22:19:45.404Z,16.52
2022-12-19T22:22:11.840Z,16.17
2022-12-19T22:24:38.280Z,16.33
2022-12-19T22:27:04.743Z,16.65
2022-12-19T22:29:36.280Z,16.98
2022-12-19T22:32:04.374Z,17.35
2022-12-19T22:34:30.957Z,17.33
2022-12-19T22:36:57.404Z,15.82
2022-12-19T22:39:24.115Z,16.23
2022-12-19T22:41:50.545Z,16.90
2022-12-19T22:44:22.529Z,16.77
2022-12-19T22:46:49.844Z,18.13
2022-12-19T22:49:16.880Z,17.38
2022-12-19T22:51:43.489Z,16.63
2022-12-19T22:54:11.908Z,16.38
2022-12-19T22:56:38.535Z,16.58
2022-12-19T22:59:08.224Z,16.50
2022-12-19T23:01:38.796Z,16.70
2022-12-19T23:04:07.591Z,17.00
2022-12-19T23:06:36.133Z,15.80
2022-12-19T23:09:04.519Z,15.90
2022-12-19T23:11:37.769Z,16.73
2022-12-19T23:14:06.381Z,15.77
2022-12-19T23:16:33.254Z,15.07
2022-12-19T23:18:59.943Z,16.83
2022-12-19T23:21:26.756Z,14.27
2022-12-19T23:23:55.054Z,15.75
2022-12-19T23:26:27.316Z,15.02
2022-12-19T23:29:02.129Z,15.35
2022-12-19T23:31:29.389Z,16.83
2022-12-19T23:33:56.666Z,16.30
2022-12-19T23:37:00.519Z,14.77
2022-12-19T23:39:11.878Z,15.95
2022-12-19T23:41:38.783Z,16.38
2022-12-19T23:44:05.739Z,14.88
2022-12-19T23:46:32.226Z,15.02
2022-12-19T23:48:58.688Z,16.25
2022-12-19T23:51:27.284Z,15.02
2022-12-19T23:53:55.675Z,14.80
2022-12-19T23:56:28.125Z,15.75
2022-12-19T23:58:55.659Z,16.35
